Pink Coral — 9HPY9 — position and weather

sailwx.info

Track history (hours):
 
Tides and Currents Weather Stations Pressure Air Temp Water Temp Dewpoint Dewpoint Depression Visibility Wind Speed Wind Dir Waves Ship Positions

Pink Coral

Last reported at 2014-Aug-20 23:28 UTC. Time now 2014-Aug-21 14:08 UTC.
Position N 35°56' E 032°54'.

Length 183 m; draft 8.6 m.

Type: Tanker. MMSI: 249344000.

Date/timePositionNaut miles runAvg speedWind from/ knotsBaromVisibWave heightAir tempDewpointWater temp
2014-Aug-20 23:28N 35°56' E 032°54'  
2014-Aug-15 22:05N 34°50' E 035°02'814.7
2014-Aug-15 21:33N 34°42' E 035°04'1514.8
2014-Aug-15 20:34N 34°28' E 035°07'2114.6
2014-Aug-15 19:09N 34°07' E 035°11'914.9
2014-Aug-15 18:33N 33°58' E 035°13'1312.7
2014-Aug-15 17:33N 33°56' E 035°27'4 1.2
2014-Aug-15 14:33N 33°55' E 035°32'8 7.9
2014-Aug-15 13:33N 33°55' E 035°22'1414.4
2014-Aug-15 12:33N 33°58' E 035°05'1514.5
2014-Aug-15 11:33N 34°03' E 034°49'1514.8
2014-Aug-15 10:33N 34°09' E 034°32'1515.0
2014-Aug-15 09:33N 34°14' E 034°15'1514.9
2014-Aug-15 08:34N 34°19' E 033°58'1514.8
2014-Aug-15 07:33N 34°24' E 033°41'1514.6
2014-Aug-15 06:33N 34°28' E 033°24'6 6.3
2014-Aug-15 05:33N 34°30' E 033°17'0 0.3
2014-Aug-15 04:34N 34°30' E 033°17'2 1.7
2014-Aug-15 03:33N 34°31' E 033°19'4 4.1
2014-Aug-15 02:33N 34°33' E 033°23'1 0.7
2014-Aug-15 01:33N 34°33' E 033°23'1 0.6
2014-Aug-15 00:33N 34°32' E 033°23'1 0.7
2014-Aug-14 23:33N 34°32' E 033°22'2 0.8
2014-Aug-14 21:33N 34°31' E 033°20'1 0.7
2014-Aug-14 20:33N 34°30' E 033°20'1 0.8
2014-Aug-14 19:33N 34°30' E 033°20'4 3.9
2014-Aug-14 18:33N 34°31' E 033°25'4 3.8
2014-Aug-14 17:33N 34°33' E 033°29'4 4.3
2014-Aug-14 16:33N 34°36' E 033°33'2 2.5
2014-Aug-14 15:33N 34°37' E 033°36'1 0.8
2014-Aug-14 14:31N 34°36' E 033°35'1 0.8
2014-Aug-14 13:34N 34°36' E 033°34'1 0.8
2014-Aug-14 12:33N 34°35' E 033°33'1 0.7
2014-Aug-14 11:33N 34°35' E 033°33'1 0.7
2014-Aug-14 10:34N 34°34' E 033°32'1 0.6
2014-Aug-14 09:31N 34°34' E 033°31'1 0.6
2014-Aug-14 08:28N 34°33' E 033°31'1 0.7
2014-Aug-14 07:31N 34°33' E 033°31'1 0.8
2014-Aug-14 06:10N 34°32' E 033°30'0 0.8
2014-Aug-14 05:33N 34°31' E 033°30'3 2.6
2014-Aug-14 04:30N 34°30' E 033°27'4 4.7
2014-Aug-14 03:33N 34°28' E 033°22'4 4.0
2014-Aug-14 02:33N 34°27' E 033°17'7 6.9
2014-Aug-14 01:33N 34°32' E 033°22'2 2.0
2014-Aug-14 00:33N 34°34' E 033°24'0 0.4
2014-Aug-13 23:33N 34°34' E 033°23'0 0.3
2014-Aug-13 22:33N 34°33' E 033°23'0 0.4
2014-Aug-13 21:33N 34°33' E 033°23'0 0.4
2014-Aug-13 20:30N 34°33' E 033°23'0 0.5
2014-Aug-13 19:33N 34°33' E 033°22'0 0.5
2014-Aug-13 18:33N 34°32' E 033°22'1 0.6
2014-Aug-13 17:33N 34°32' E 033°21'1 1.3
2014-Aug-13 16:33N 34°32' E 033°23'2 2.1
2014-Aug-13 15:26N 34°33' E 033°25'1 0.9
2014-Aug-13 14:26N 34°33' E 033°24'1 0.9
2014-Aug-13 13:13N 34°32' E 033°23'1 0.8
2014-Aug-13 12:28N 34°32' E 033°22'1 0.8
2014-Aug-13 11:31N 34°32' E 033°22'1 0.8
2014-Aug-13 10:32N 34°31' E 033°21'1 0.9
2014-Aug-13 09:31N 34°30' E 033°20'1 0.9
2014-Aug-13 08:33N 34°31' E 033°20'7 7.1
2014-Aug-13 07:33N 34°36' E 033°25'1211.8
2014-Aug-13 06:32N 34°35' E 033°40'11 3.8
2014-Aug-13 03:33N 34°36' E 033°54'1 0.5
2014-Aug-13 02:33N 34°36' E 033°53'1 0.6
2014-Aug-13 00:33N 34°36' E 033°52'3 0.7
2014-Aug-12 20:27N 34°36' E 033°48'1 0.8
2014-Aug-12 19:06N 34°36' E 033°47'1 0.8
2014-Aug-12 17:33N 34°36' E 033°45'1 0.8
2014-Aug-12 16:23N 34°35' E 033°44'1 0.8
2014-Aug-12 15:26N 34°35' E 033°44'1 0.8
2014-Aug-12 14:30N 34°35' E 033°43'1 0.7
2014-Aug-12 13:30N 34°35' E 033°42'1 0.7
2014-Aug-12 12:29N 34°34' E 033°41'1 0.6
2014-Aug-12 11:11N 34°34' E 033°40'0 0.5
2014-Aug-12 10:24N 34°34' E 033°40'0 0.6
2014-Aug-12 09:33N 34°34' E 033°39'1 0.5
2014-Aug-12 08:33N 34°33' E 033°39'1 0.6
2014-Aug-12 07:32N 34°33' E 033°38'1 0.6
2014-Aug-12 06:30N 34°33' E 033°37'1 0.6
2014-Aug-12 05:33N 34°33' E 033°37'1 0.7
2014-Aug-12 03:32N 34°32' E 033°35'1 0.6
2014-Aug-12 02:32N 34°32' E 033°35'1 0.6
2014-Aug-12 01:17N 34°31' E 033°34'1 0.7
2014-Aug-11 23:26N 34°31' E 033°32'1 0.8
2014-Aug-11 22:32N 34°30' E 033°32'1 0.6
2014-Aug-11 21:32N 34°30' E 033°31'4 4.5
2014-Aug-11 20:33N 34°32' E 033°36'1 0.7
2014-Aug-11 19:31N 34°31' E 033°37'1 0.7
2014-Aug-11 18:28N 34°31' E 033°36'1 0.7
2014-Aug-11 17:31N 34°31' E 033°35'1 0.7
2014-Aug-11 16:31N 34°31' E 033°34'1 0.7
2014-Aug-11 15:31N 34°30' E 033°33'1 0.7
2014-Aug-11 14:31N 34°30' E 033°32'1 0.7
2014-Aug-11 13:31N 34°30' E 033°32'1 0.7
2014-Aug-11 12:25N 34°29' E 033°31'1 0.7
2014-Aug-11 11:28N 34°29' E 033°30'1 0.8
2014-Aug-11 10:31N 34°29' E 033°29'0 0.4
2014-Aug-11 09:31N 34°29' E 033°29'7 7.5
2014-Aug-11 08:33N 34°29' E 033°38'1312.6
2014-Aug-11 07:33N 34°29' E 033°53'1212.1
2014-Aug-11 06:33N 34°34' E 034°07'1212.0
2014-Aug-11 05:33N 34°39' E 034°20'1 1.3
2014-Aug-11 04:31N 34°41' E 034°20'0 0.2
2014-Aug-11 03:31N 34°41' E 034°20'  
Track history (hours):
 
Tides and Currents Weather Stations Pressure Air Temp Water Temp Dewpoint Dewpoint Depression Visibility Wind Speed Wind Dir Waves Ship Positions

Pink Coral

Last reported at 2014-Aug-20 23:28 UTC. Time now 2014-Aug-21 14:08 UTC.
Position N 35°56' E 032°54'.

Length 183 m; draft 8.6 m.

Type: Tanker. MMSI: 249344000.

Date/timePositionNaut miles runAvg speedWind from/ knotsBaromVisibWave heightAir tempDewpointWater temp
2014-Aug-20 23:28N 35°56' E 032°54'  
2014-Aug-15 22:05N 34°50' E 035°02'814.7
2014-Aug-15 21:33N 34°42' E 035°04'1514.8
2014-Aug-15 20:34N 34°28' E 035°07'2114.6
2014-Aug-15 19:09N 34°07' E 035°11'914.9
2014-Aug-15 18:33N 33°58' E 035°13'1312.7
2014-Aug-15 17:33N 33°56' E 035°27'4 1.2
2014-Aug-15 14:33N 33°55' E 035°32'8 7.9
2014-Aug-15 13:33N 33°55' E 035°22'1414.4
2014-Aug-15 12:33N 33°58' E 035°05'1514.5
2014-Aug-15 11:33N 34°03' E 034°49'1514.8
2014-Aug-15 10:33N 34°09' E 034°32'1515.0
2014-Aug-15 09:33N 34°14' E 034°15'1514.9
2014-Aug-15 08:34N 34°19' E 033°58'1514.8
2014-Aug-15 07:33N 34°24' E 033°41'1514.6
2014-Aug-15 06:33N 34°28' E 033°24'6 6.3
2014-Aug-15 05:33N 34°30' E 033°17'0 0.3
2014-Aug-15 04:34N 34°30' E 033°17'2 1.7
2014-Aug-15 03:33N 34°31' E 033°19'4 4.1
2014-Aug-15 02:33N 34°33' E 033°23'1 0.7
2014-Aug-15 01:33N 34°33' E 033°23'1 0.6
2014-Aug-15 00:33N 34°32' E 033°23'1 0.7
2014-Aug-14 23:33N 34°32' E 033°22'2 0.8
2014-Aug-14 21:33N 34°31' E 033°20'1 0.7
2014-Aug-14 20:33N 34°30' E 033°20'1 0.8
2014-Aug-14 19:33N 34°30' E 033°20'4 3.9
2014-Aug-14 18:33N 34°31' E 033°25'4 3.8
2014-Aug-14 17:33N 34°33' E 033°29'4 4.3
2014-Aug-14 16:33N 34°36' E 033°33'2 2.5
2014-Aug-14 15:33N 34°37' E 033°36'1 0.8
2014-Aug-14 14:31N 34°36' E 033°35'1 0.8
2014-Aug-14 13:34N 34°36' E 033°34'1 0.8
2014-Aug-14 12:33N 34°35' E 033°33'1 0.7
2014-Aug-14 11:33N 34°35' E 033°33'1 0.7
2014-Aug-14 10:34N 34°34' E 033°32'1 0.6
2014-Aug-14 09:31N 34°34' E 033°31'1 0.6
2014-Aug-14 08:28N 34°33' E 033°31'1 0.7
2014-Aug-14 07:31N 34°33' E 033°31'1 0.8
2014-Aug-14 06:10N 34°32' E 033°30'0 0.8
2014-Aug-14 05:33N 34°31' E 033°30'3 2.6
2014-Aug-14 04:30N 34°30' E 033°27'4 4.7
2014-Aug-14 03:33N 34°28' E 033°22'4 4.0
2014-Aug-14 02:33N 34°27' E 033°17'7 6.9
2014-Aug-14 01:33N 34°32' E 033°22'2 2.0
2014-Aug-14 00:33N 34°34' E 033°24'0 0.4
2014-Aug-13 23:33N 34°34' E 033°23'0 0.3
2014-Aug-13 22:33N 34°33' E 033°23'0 0.4
2014-Aug-13 21:33N 34°33' E 033°23'0 0.4
2014-Aug-13 20:30N 34°33' E 033°23'0 0.5
2014-Aug-13 19:33N 34°33' E 033°22'0 0.5
2014-Aug-13 18:33N 34°32' E 033°22'1 0.6
2014-Aug-13 17:33N 34°32' E 033°21'1 1.3
2014-Aug-13 16:33N 34°32' E 033°23'2 2.1
2014-Aug-13 15:26N 34°33' E 033°25'1 0.9
2014-Aug-13 14:26N 34°33' E 033°24'1 0.9
2014-Aug-13 13:13N 34°32' E 033°23'1 0.8
2014-Aug-13 12:28N 34°32' E 033°22'1 0.8
2014-Aug-13 11:31N 34°32' E 033°22'1 0.8
2014-Aug-13 10:32N 34°31' E 033°21'1 0.9
2014-Aug-13 09:31N 34°30' E 033°20'1 0.9
2014-Aug-13 08:33N 34°31' E 033°20'7 7.1
2014-Aug-13 07:33N 34°36' E 033°25'1211.8
2014-Aug-13 06:32N 34°35' E 033°40'11 3.8
2014-Aug-13 03:33N 34°36' E 033°54'1 0.5
2014-Aug-13 02:33N 34°36' E 033°53'1 0.6
2014-Aug-13 00:33N 34°36' E 033°52'3 0.7
2014-Aug-12 20:27N 34°36' E 033°48'1 0.8
2014-Aug-12 19:06N 34°36' E 033°47'1 0.8
2014-Aug-12 17:33N 34°36' E 033°45'1 0.8
2014-Aug-12 16:23N 34°35' E 033°44'1 0.8
2014-Aug-12 15:26N 34°35' E 033°44'1 0.8
2014-Aug-12 14:30N 34°35' E 033°43'1 0.7
2014-Aug-12 13:30N 34°35' E 033°42'1 0.7
2014-Aug-12 12:29N 34°34' E 033°41'1 0.6
2014-Aug-12 11:11N 34°34' E 033°40'0 0.5
2014-Aug-12 10:24N 34°34' E 033°40'0 0.6
2014-Aug-12 09:33N 34°34' E 033°39'1 0.5
2014-Aug-12 08:33N 34°33' E 033°39'1 0.6
2014-Aug-12 07:32N 34°33' E 033°38'1 0.6
2014-Aug-12 06:30N 34°33' E 033°37'1 0.6
2014-Aug-12 05:33N 34°33' E 033°37'1 0.7
2014-Aug-12 03:32N 34°32' E 033°35'1 0.6
2014-Aug-12 02:32N 34°32' E 033°35'1 0.6
2014-Aug-12 01:17N 34°31' E 033°34'1 0.7
2014-Aug-11 23:26N 34°31' E 033°32'1 0.8
2014-Aug-11 22:32N 34°30' E 033°32'1 0.6
2014-Aug-11 21:32N 34°30' E 033°31'4 4.5
2014-Aug-11 20:33N 34°32' E 033°36'1 0.7
2014-Aug-11 19:31N 34°31' E 033°37'1 0.7
2014-Aug-11 18:28N 34°31' E 033°36'1 0.7
2014-Aug-11 17:31N 34°31' E 033°35'1 0.7
2014-Aug-11 16:31N 34°31' E 033°34'1 0.7
2014-Aug-11 15:31N 34°30' E 033°33'1 0.7
2014-Aug-11 14:31N 34°30' E 033°32'1 0.7
2014-Aug-11 13:31N 34°30' E 033°32'1 0.7
2014-Aug-11 12:25N 34°29' E 033°31'1 0.7
2014-Aug-11 11:28N 34°29' E 033°30'1 0.8
2014-Aug-11 10:31N 34°29' E 033°29'0 0.4
2014-Aug-11 09:31N 34°29' E 033°29'7 7.5
2014-Aug-11 08:33N 34°29' E 033°38'1312.6
2014-Aug-11 07:33N 34°29' E 033°53'1212.1
2014-Aug-11 06:33N 34°34' E 034°07'1212.0
2014-Aug-11 05:33N 34°39' E 034°20'1 1.3
2014-Aug-11 04:31N 34°41' E 034°20'0 0.2
2014-Aug-11 03:31N 34°41' E 034°20'  

Dump ship's entire track history